Time;durP1;ratioP1;P1;durP2;ratioP2;P2;SDS_P1;SDS_P2;PMS_P1;PMS_P2;Temp;Humidity;BMP_temperature;BMP_pressure;BME280_temperature;BME280_humidity;BME280_pressure;Samples;Min_cycle;Max_cycle;Signal;HPM_P1;HPM_P2
2023/10/24 00:01:32;;;;;;;11.32;7.00;;;;;;;;;;5033303;28;20080;-72
2023/10/24 00:03:58;;;;;;;14.68;8.07;;;;;;;;;;5016235;28;20090;-72
2023/10/24 00:06:23;;;;;;;16.50;8.85;;;;;;;;;;5032485;28;20033;-73
2023/10/24 00:08:49;;;;;;;18.65;8.70;;;;;;;;;;5034006;28;20033;-73
2023/10/24 00:11:15;;;;;;;19.58;10.27;;;;;;;;;;5015887;28;20108;-73
2023/10/24 00:13:41;;;;;;;16.83;9.75;;;;;;;;;;5023528;28;20044;-72
2023/10/24 00:16:07;;;;;;;16.95;9.95;;;;;;;;;;5052086;28;20045;-72
2023/10/24 00:18:48;;;;;;;18.88;10.32;;;;;;;;;;5015596;28;20068;-72
2023/10/24 00:21:14;;;;;;;15.00;8.95;;;;;;;;;;5035460;28;20037;-73
2023/10/24 00:23:43;;;;;;;16.90;9.52;;;;;;;;;;5019052;28;20036;-73
2023/10/24 00:26:09;;;;;;;14.57;8.70;;;;;;;;;;5053203;28;20029;-73
2023/10/24 00:28:34;;;;;;;17.63;9.70;;;;;;;;;;5035656;28;20020;-74
2023/10/24 00:31:00;;;;;;;19.35;8.25;;;;;;;;;;5053143;28;20108;-74
2023/10/24 00:33:26;;;;;;;15.23;8.30;;;;;;;;;;5053491;28;20064;-73
2023/10/24 00:35:52;;;;;;;16.63;8.40;;;;;;;;;;5035780;28;20017;-73
2023/10/24 00:38:18;;;;;;;14.93;8.43;;;;;;;;;;5035314;28;20025;-74
2023/10/24 00:40:44;;;;;;;14.02;7.13;;;;;;;;;;5037988;28;20440;-73
2023/10/24 00:43:11;;;;;;;15.43;7.70;;;;;;;;;;5040384;28;20029;-76
2023/10/24 00:45:37;;;;;;;15.07;7.43;;;;;;;;;;5058876;28;20044;-76
2023/10/24 00:48:05;;;;;;;12.45;7.55;;;;;;;;;;5058848;28;20082;-75
2023/10/24 00:50:31;;;;;;;13.77;7.22;;;;;;;;;;5040930;28;20035;-76
2023/10/24 00:52:58;;;;;;;12.27;7.50;;;;;;;;;;5042569;28;20119;-74
2023/10/24 00:55:24;;;;;;;14.55;6.97;;;;;;;;;;5038001;28;20033;-75
2023/10/24 00:57:51;;;;;;;15.88;6.65;;;;;;;;;;5037564;28;20501;-75
2023/10/24 01:00:18;;;;;;;15.00;7.47;;;;;;;;;;5051675;28;20025;-76
2023/10/24 01:02:45;;;;;;;14.63;7.72;;;;;;;;;;5051757;28;20044;-77
2023/10/24 01:05:12;;;;;;;14.20;7.60;;;;;;;;;;5039040;28;20102;-75
2023/10/24 01:07:38;;;;;;;12.63;7.13;;;;;;;;;;5055475;28;20029;-76
2023/10/24 01:10:05;;;;;;;10.57;7.07;;;;;;;;;;5055256;28;20017;-77
2023/10/24 01:12:32;;;;;;;11.85;7.35;;;;;;;;;;5056463;28;20020;-76
2023/10/24 01:14:58;;;;;;;13.45;6.53;;;;;;;;;;5038110;28;20028;-75
2023/10/24 01:17:24;;;;;;;13.85;7.47;;;;;;;;;;5038329;28;20032;-76
2023/10/24 01:19:51;;;;;;;12.82;7.60;;;;;;;;;;5048186;28;20029;-75
2023/10/24 01:22:16;;;;;;;18.83;7.82;;;;;;;;;;5018204;28;20026;-75
2023/10/24 01:24:42;;;;;;;15.18;7.15;;;;;;;;;;5017739;28;20026;-75
2023/10/24 01:27:08;;;;;;;14.93;7.95;;;;;;;;;;5036861;28;20099;-75
2023/10/24 01:29:35;;;;;;;14.32;7.53;;;;;;;;;;5037102;28;20040;-75
2023/10/24 01:32:01;;;;;;;15.35;7.70;;;;;;;;;;5054763;28;20504;-76
2023/10/24 01:34:26;;;;;;;13.75;7.25;;;;;;;;;;5052129;28;20024;-76
2023/10/24 01:36:53;;;;;;;16.10;7.90;;;;;;;;;;5035513;28;20025;-77
2023/10/24 01:39:19;;;;;;;15.77;7.95;;;;;;;;;;5035429;28;20136;-75
2023/10/24 01:41:45;;;;;;;12.52;6.68;;;;;;;;;;5034481;28;20473;-76
2023/10/24 01:44:11;;;;;;;15.85;7.38;;;;;;;;;;5017576;28;20026;-76
2023/10/24 01:46:36;;;;;;;13.68;7.72;;;;;;;;;;5049439;28;20036;-75
2023/10/24 01:49:02;;;;;;;17.17;7.78;;;;;;;;;;5035130;28;20027;-76
2023/10/24 01:51:28;;;;;;;14.85;7.57;;;;;;;;;;5033626;28;20108;-75
2023/10/24 01:53:54;;;;;;;11.52;7.80;;;;;;;;;;5033862;28;20026;-74
2023/10/24 01:56:20;;;;;;;15.80;7.88;;;;;;;;;;5032743;28;20043;-73
2023/10/24 01:58:46;;;;;;;16.50;7.00;;;;;;;;;;5014106;28;20504;-73
2023/10/24 02:01:14;;;;;;;14.80;8.00;;;;;;;;;;5030410;28;20506;-72
2023/10/24 02:03:39;;;;;;;13.77;7.35;;;;;;;;;;5014203;28;20646;-73
2023/10/24 02:06:05;;;;;;;13.00;6.85;;;;;;;;;;5013626;28;20032;-72
2023/10/24 02:08:30;;;;;;;14.45;7.05;;;;;;;;;;5019512;28;20113;-73
2023/10/24 02:10:56;;;;;;;14.75;7.55;;;;;;;;;;5050060;28;20127;-72
2023/10/24 02:13:22;;;;;;;13.98;7.32;;;;;;;;;;5052091;28;20921;-70
2023/10/24 02:15:47;;;;;;;16.38;7.20;;;;;;;;;;5034990;28;20514;-71
2023/10/24 02:18:13;;;;;;;13.85;6.28;;;;;;;;;;5035344;28;20111;-73
2023/10/24 02:20:39;;;;;;;16.38;7.70;;;;;;;;;;5055039;28;20027;-71
2023/10/24 02:23:06;;;;;;;11.25;6.63;;;;;;;;;;5054244;28;20040;-73
2023/10/24 02:25:39;;;;;;;13.68;7.10;;;;;;;;;;5035341;28;20029;-73
2023/10/24 02:28:05;;;;;;;14.45;8.00;;;;;;;;;;5017743;28;20032;-72
2023/10/24 02:30:38;;;;;;;13.57;6.97;;;;;;;;;;5051335;28;20040;-72
2023/10/24 02:33:04;;;;;;;14.43;6.75;;;;;;;;;;5032068;28;20033;-73
2023/10/24 02:35:31;;;;;;;15.20;7.88;;;;;;;;;;5033061;28;20525;-73
2023/10/24 02:37:57;;;;;;;12.90;7.72;;;;;;;;;;5017068;28;20052;-76
2023/10/24 02:40:24;;;;;;;16.02;6.93;;;;;;;;;;5052853;28;20103;-75
2023/10/24 02:42:50;;;;;;;15.73;7.57;;;;;;;;;;5054443;28;20461;-76
2023/10/24 02:45:15;;;;;;;16.02;9.18;;;;;;;;;;5036179;28;20028;-76
2023/10/24 02:47:41;;;;;;;15.98;7.97;;;;;;;;;;5036479;28;20020;-76
2023/10/24 02:50:07;;;;;;;14.55;7.43;;;;;;;;;;5054023;28;20028;-75
2023/10/24 02:52:35;;;;;;;13.90;7.70;;;;;;;;;;5037608;28;20036;-75
2023/10/24 02:55:03;;;;;;;10.35;7.03;;;;;;;;;;5039387;28;20045;-76
2023/10/24 02:57:28;;;;;;;27.92;8.75;;;;;;;;;;5038213;28;20029;-75
2023/10/24 02:59:54;;;;;;;17.30;8.15;;;;;;;;;;5055413;28;20032;-77
2023/10/24 03:02:20;;;;;;;15.63;7.47;;;;;;;;;;5037268;28;20036;-76
2023/10/24 03:04:46;;;;;;;14.52;8.60;;;;;;;;;;5054451;28;20085;-75
2023/10/24 03:07:11;;;;;;;14.18;7.28;;;;;;;;;;5036552;28;20029;-74
2023/10/24 03:09:37;;;;;;;15.55;7.47;;;;;;;;;;5054832;28;20097;-75
2023/10/24 03:12:09;;;;;;;16.70;7.78;;;;;;;;;;5036789;28;20048;-77
2023/10/24 03:14:36;;;;;;;11.60;6.80;;;;;;;;;;5037962;28;20112;-77
2023/10/24 03:17:04;;;;;;;16.25;8.35;;;;;;;;;;5037486;28;20041;-76
2023/10/24 03:19:36;;;;;;;15.10;8.05;;;;;;;;;;5054772;28;20040;-75
2023/10/24 03:22:01;;;;;;;14.00;7.60;;;;;;;;;;5052868;28;20029;-76
2023/10/24 03:24:28;;;;;;;19.80;7.68;;;;;;;;;;5053738;28;20090;-74
2023/10/24 03:26:54;;;;;;;13.98;7.13;;;;;;;;;;5054756;28;20029;-76
2023/10/24 03:29:20;;;;;;;15.23;8.00;;;;;;;;;;5036177;28;20039;-75
2023/10/24 03:31:45;;;;;;;14.05;7.85;;;;;;;;;;5057794;28;20032;-76
2023/10/24 03:34:11;;;;;;;11.60;7.25;;;;;;;;;;5065242;28;20047;-75
2023/10/24 03:36:37;;;;;;;19.40;7.45;;;;;;;;;;5073283;28;20017;-75
2023/10/24 03:39:03;;;;;;;14.55;7.97;;;;;;;;;;5041282;28;20029;-78
2023/10/24 03:41:30;;;;;;;17.95;7.10;;;;;;;;;;5036666;28;20049;-76
2023/10/24 03:43:56;;;;;;;16.08;7.30;;;;;;;;;;5038096;28;20158;-78
2023/10/24 03:46:21;;;;;;;10.68;6.43;;;;;;;;;;5057240;28;20111;-75
2023/10/24 03:48:47;;;;;;;18.75;8.52;;;;;;;;;;5039897;28;20020;-76
2023/10/24 03:51:13;;;;;;;16.45;7.63;;;;;;;;;;5040016;28;20036;-76
2023/10/24 03:53:39;;;;;;;18.25;7.32;;;;;;;;;;5039287;28;20130;-76
2023/10/24 03:56:05;;;;;;;17.25;8.90;;;;;;;;;;5058039;28;20067;-75
2023/10/24 03:58:30;;;;;;;14.30;6.97;;;;;;;;;;5057924;28;20108;-75
2023/10/24 04:01:04;;;;;;;18.95;8.57;;;;;;;;;;5057880;28;20075;-74
2023/10/24 04:03:29;;;;;;;19.25;9.27;;;;;;;;;;5057681;28;20538;-75
2023/10/24 04:05:55;;;;;;;14.13;8.25;;;;;;;;;;5040008;28;20063;-76
2023/10/24 04:08:21;;;;;;;15.98;8.10;;;;;;;;;;5055135;28;20092;-75
2023/10/24 04:10:48;;;;;;;18.25;8.45;;;;;;;;;;5039269;28;20035;-77
2023/10/24 04:13:13;;;;;;;14.85;7.97;;;;;;;;;;5055765;28;20092;-74
2023/10/24 04:15:39;;;;;;;18.35;8.05;;;;;;;;;;5055659;28;20439;-75
2023/10/24 04:18:06;;;;;;;12.02;7.35;;;;;;;;;;5039632;28;20585;-76
2023/10/24 04:20:32;;;;;;;19.63;8.10;;;;;;;;;;5039338;28;20053;-76
2023/10/24 04:23:05;;;;;;;16.65;9.32;;;;;;;;;;5039196;28;20079;-76
2023/10/24 04:25:30;;;;;;;18.60;8.07;;;;;;;;;;5039612;28;20111;-75
2023/10/24 04:27:58;;;;;;;18.85;9.00;;;;;;;;;;5056415;28;20074;-76
2023/10/24 04:30:26;;;;;;;16.45;8.65;;;;;;;;;;5057935;28;20052;-76
2023/10/24 04:32:55;;;;;;;17.17;8.38;;;;;;;;;;5037113;28;20086;-73
2023/10/24 04:35:21;;;;;;;20.25;8.73;;;;;;;;;;5041862;28;20072;-74
2023/10/24 04:37:47;;;;;;;17.67;8.05;;;;;;;;;;5031402;28;20017;-73
2023/10/24 04:40:14;;;;;;;20.77;9.55;;;;;;;;;;5035424;28;20516;-73
2023/10/24 04:42:40;;;;;;;14.43;8.02;;;;;;;;;;5050978;28;20036;-72
2023/10/24 04:45:07;;;;;;;14.25;8.10;;;;;;;;;;5047562;28;20366;-75
2023/10/24 04:47:34;;;;;;;18.98;8.85;;;;;;;;;;5035576;28;20032;-75
2023/10/24 04:50:01;;;;;;;16.38;8.18;;;;;;;;;;5051148;28;20029;-74
2023/10/24 04:52:26;;;;;;;18.08;8.55;;;;;;;;;;5050150;28;20040;-73
2023/10/24 04:54:53;;;;;;;13.73;7.30;;;;;;;;;;5048480;28;20121;-73
2023/10/24 04:57:19;;;;;;;15.93;7.53;;;;;;;;;;5046827;28;20144;-74
2023/10/24 04:59:44;;;;;;;15.73;6.88;;;;;;;;;;5048770;28;20066;-73
2023/10/24 05:02:10;;;;;;;12.27;7.97;;;;;;;;;;5033838;28;20075;-74
2023/10/24 05:04:38;;;;;;;11.48;7.30;;;;;;;;;;5032754;28;20078;-73
2023/10/24 05:07:09;;;;;;;13.77;8.80;;;;;;;;;;5035694;28;20033;-76
2023/10/24 05:09:35;;;;;;;20.17;9.02;;;;;;;;;;5047188;28;20028;-75
2023/10/24 05:12:00;;;;;;;16.92;8.38;;;;;;;;;;5070882;28;20044;-78
2023/10/24 05:14:28;;;;;;;14.32;8.15;;;;;;;;;;5023564;28;20040;-75
2023/10/24 05:16:53;;;;;;;17.05;9.48;;;;;;;;;;5045435;28;20079;-74
2023/10/24 05:19:20;;;;;;;17.50;10.02;;;;;;;;;;5026163;28;20057;-74
2023/10/24 05:21:47;;;;;;;19.30;9.77;;;;;;;;;;5051934;28;20116;-74
2023/10/24 05:24:13;;;;;;;22.85;9.88;;;;;;;;;;5040121;28;20033;-74
2023/10/24 05:26:39;;;;;;;19.95;11.70;;;;;;;;;;5028317;28;20661;-74
2023/10/24 05:29:05;;;;;;;15.48;9.00;;;;;;;;;;5015084;28;20036;-74
2023/10/24 05:31:33;;;;;;;15.23;9.30;;;;;;;;;;5031424;28;20036;-74
2023/10/24 05:34:02;;;;;;;16.73;9.48;;;;;;;;;;5038896;28;20033;-74
2023/10/24 05:36:29;;;;;;;20.08;9.15;;;;;;;;;;5030256;28;20024;-76
2023/10/24 05:38:55;;;;;;;15.73;8.55;;;;;;;;;;5028165;28;20037;-77
2023/10/24 05:41:22;;;;;;;13.48;8.10;;;;;;;;;;5049778;28;20087;-75
2023/10/24 05:43:48;;;;;;;19.85;10.73;;;;;;;;;;5033889;28;20546;-74
2023/10/24 05:46:14;;;;;;;20.65;9.15;;;;;;;;;;5052035;28;20033;-75
2023/10/24 05:48:40;;;;;;;19.45;8.88;;;;;;;;;;5055199;28;20024;-74
2023/10/24 05:51:11;;;;;;;21.25;8.57;;;;;;;;;;5036652;28;20029;-75
2023/10/24 05:53:37;;;;;;;20.15;8.20;;;;;;;;;;5043900;28;20029;-75
2023/10/24 05:56:09;;;;;;;16.67;8.70;;;;;;;;;;5025187;28;20053;-75
2023/10/24 05:58:34;;;;;;;;;;;;;;;;;;5032032;28;20503;-74
2023/10/24 06:01:00;;;;;;;16.33;9.93;;;;;;;;;;5052713;28;19917;-76
2023/10/24 06:03:26;;;;;;;18.35;11.10;;;;;;;;;;5054208;28;20389;-74
2023/10/24 06:05:52;;;;;;;21.40;11.98;;;;;;;;;;5050542;28;20020;-76
2023/10/24 06:08:20;;;;;;;20.20;10.90;;;;;;;;;;5049593;28;20029;-76
2023/10/24 06:11:15;;;;;;;22.58;12.02;;;;;;;;;;5056146;28;20028;-78
2023/10/24 06:13:48;;;;;;;21.25;11.45;;;;;;;;;;5041069;28;20029;-78
2023/10/24 06:16:50;;;;;;;23.83;10.48;;;;;;;;;;5041764;28;20111;-78
2023/10/24 06:19:25;;;;;;;16.63;10.13;;;;;;;;;;5039772;28;20047;-77
2023/10/24 06:22:20;;;;;;;34.67;11.38;;;;;;;;;;5055961;28;20669;-78
2023/10/24 06:24:48;;;;;;;20.65;10.73;;;;;;;;;;5038299;28;20045;-78
2023/10/24 06:27:24;;;;;;;24.27;11.30;;;;;;;;;;5016075;28;20085;-78
2023/10/24 06:30:07;;;;;;;23.95;10.57;;;;;;;;;;5020784;28;20212;-74
2023/10/24 06:32:35;;;;;;;24.92;10.50;;;;;;;;;;5005569;28;20049;-78
2023/10/24 06:35:05;;;;;;;17.33;10.00;;;;;;;;;;5031999;28;20040;-80
2023/10/24 06:37:32;;;;;;;22.98;10.90;;;;;;;;;;5008021;28;20097;-78
2023/10/24 06:40:10;;;;;;;17.98;9.90;;;;;;;;;;5006744;28;20315;-77
2023/10/24 06:42:44;;;;;;;47.17;12.98;;;;;;;;;;5004970;28;20053;-76
2023/10/24 06:45:15;;;;;;;15.77;8.52;;;;;;;;;;5017442;28;20519;-75
2023/10/24 06:48:02;;;;;;;14.93;8.52;;;;;;;;;;5024251;28;20063;-80
2023/10/24 06:50:52;;;;;;;17.23;8.57;;;;;;;;;;5006932;28;20504;-78
2023/10/24 06:53:19;;;;;;;18.77;9.40;;;;;;;;;;5012428;28;20446;-75
2023/10/24 06:55:48;;;;;;;18.10;8.40;;;;;;;;;;5008928;28;20041;-77
2023/10/24 06:58:14;;;;;;;17.23;9.40;;;;;;;;;;5000120;28;20037;-74
2023/10/24 07:00:41;;;;;;;15.57;8.77;;;;;;;;;;5009619;28;20052;-78
2023/10/24 07:03:08;;;;;;;19.20;8.98;;;;;;;;;;5042972;28;20440;-82
2023/10/24 07:05:34;;;;;;;15.48;9.13;;;;;;;;;;5036791;28;20068;-74
2023/10/24 07:08:00;;;;;;;19.63;9.27;;;;;;;;;;5055266;28;20044;-75
2023/10/24 07:10:26;;;;;;;14.35;8.90;;;;;;;;;;5041794;28;20047;-81
2023/10/24 07:12:52;;;;;;;15.23;8.52;;;;;;;;;;5023733;28;20092;-77
2023/10/24 07:15:18;;;;;;;18.25;8.52;;;;;;;;;;5024512;28;20123;-76
2023/10/24 07:17:43;;;;;;;16.17;8.88;;;;;;;;;;5041918;28;20053;-75
2023/10/24 07:20:09;;;;;;;23.30;9.93;;;;;;;;;;5027441;28;20473;-73
2023/10/24 07:22:36;;;;;;;17.50;8.93;;;;;;;;;;5044848;28;20040;-74
2023/10/24 07:25:02;;;;;;;17.80;9.27;;;;;;;;;;5035561;28;20485;-76
2023/10/24 07:27:29;;;;;;;14.85;9.27;;;;;;;;;;5038652;28;20035;-73
2023/10/24 07:29:55;;;;;;;22.73;9.43;;;;;;;;;;5037037;28;20606;-75
2023/10/24 07:32:20;;;;;;;16.33;9.65;;;;;;;;;;5038627;28;20033;-73
2023/10/24 07:34:48;;;;;;;20.05;10.45;;;;;;;;;;5040104;28;20098;-75
2023/10/24 07:37:14;;;;;;;26.00;11.15;;;;;;;;;;5035594;28;20029;-75
2023/10/24 07:39:40;;;;;;;26.10;9.88;;;;;;;;;;5040378;28;20563;-75
2023/10/24 07:42:06;;;;;;;17.70;9.48;;;;;;;;;;5044441;28;20033;-74
2023/10/24 07:44:32;;;;;;;31.95;11.48;;;;;;;;;;5037871;28;21068;-76
2023/10/24 07:46:58;;;;;;;19.02;9.77;;;;;;;;;;5038401;28;20036;-76
2023/10/24 07:49:30;;;;;;;49.03;12.05;;;;;;;;;;5041166;28;20059;-77
2023/10/24 07:51:57;;;;;;;22.73;9.82;;;;;;;;;;5033377;28;20024;-74
2023/10/24 07:54:26;;;;;;;20.55;10.02;;;;;;;;;;5039019;28;20099;-76
2023/10/24 07:56:51;;;;;;;43.25;11.98;;;;;;;;;;5053587;28;20039;-73
2023/10/24 07:59:18;;;;;;;40.38;14.38;;;;;;;;;;5032184;28;20245;-75
2023/10/24 08:01:45;;;;;;;26.90;10.45;;;;;;;;;;5060009;28;20036;-74
2023/10/24 08:04:14;;;;;;;21.52;9.15;;;;;;;;;;5036508;28;20029;-78
2023/10/24 08:06:40;;;;;;;28.83;9.70;;;;;;;;;;5020943;28;20028;-78
2023/10/24 08:09:09;;;;;;;27.05;10.07;;;;;;;;;;5038153;28;20501;-74
2023/10/24 08:11:41;;;;;;;21.73;9.27;;;;;;;;;;5039358;28;20033;-75
2023/10/24 08:14:07;;;;;;;18.67;9.55;;;;;;;;;;5039042;28;20029;-74
2023/10/24 08:16:35;;;;;;;31.20;11.55;;;;;;;;;;5034523;28;20044;-74
2023/10/24 08:19:02;;;;;;;25.73;11.88;;;;;;;;;;5020084;28;20043;-73
2023/10/24 08:21:28;;;;;;;18.58;9.65;;;;;;;;;;5023188;28;20207;-75
2023/10/24 08:23:56;;;;;;;20.60;9.88;;;;;;;;;;5023263;28;20159;-75
2023/10/24 08:26:22;;;;;;;24.70;12.48;;;;;;;;;;5037854;28;20053;-75
2023/10/24 08:28:51;;;;;;;24.02;10.82;;;;;;;;;;5025782;28;20037;-74
2023/10/24 08:31:17;;;;;;;22.80;11.40;;;;;;;;;;5023234;28;20056;-75
2023/10/24 08:33:42;;;;;;;24.42;10.95;;;;;;;;;;5027313;28;20517;-76
2023/10/24 08:36:08;;;;;;;22.05;10.48;;;;;;;;;;5028345;28;20689;-75
2023/10/24 08:38:34;;;;;;;16.73;10.05;;;;;;;;;;5045457;28;20472;-75
2023/10/24 08:41:01;;;;;;;20.25;10.15;;;;;;;;;;5037617;28;20442;-75
2023/10/24 08:43:27;;;;;;;24.42;11.60;;;;;;;;;;5032519;28;20481;-74
2023/10/24 08:45:54;;;;;;;22.35;10.57;;;;;;;;;;5058666;28;20027;-74
2023/10/24 08:48:23;;;;;;;24.83;11.77;;;;;;;;;;5033703;28;20044;-75
2023/10/24 08:50:57;;;;;;;19.45;10.57;;;;;;;;;;5011952;28;20043;-75
2023/10/24 08:53:23;;;;;;;20.92;11.55;;;;;;;;;;5039803;28;20029;-79
2023/10/24 08:55:51;;;;;;;22.85;11.20;;;;;;;;;;5017238;28;20082;-75
2023/10/24 08:58:31;;;;;;;21.50;10.43;;;;;;;;;;5037984;28;20039;-76
2023/10/24 09:01:00;;;;;;;25.92;12.00;;;;;;;;;;5034774;28;20778;-77
2023/10/24 09:03:29;;;;;;;22.08;11.45;;;;;;;;;;5027084;28;20116;-75
2023/10/24 09:05:56;;;;;;;24.40;11.55;;;;;;;;;;5016116;28;20536;-75
2023/10/24 09:08:24;;;;;;;20.40;11.50;;;;;;;;;;5023963;28;20036;-75
2023/10/24 09:10:50;;;;;;;26.05;11.20;;;;;;;;;;5018432;28;20040;-76
2023/10/24 09:13:18;;;;;;;23.80;12.15;;;;;;;;;;5023771;28;20033;-77
2023/10/24 09:15:44;;;;;;;22.30;11.48;;;;;;;;;;5044985;28;20045;-74
2023/10/24 09:18:10;;;;;;;23.73;10.77;;;;;;;;;;5039860;28;20556;-75
2023/10/24 09:21:25;;;;;;;28.83;12.27;;;;;;;;;;5039411;28;20041;-76
2023/10/24 09:23:51;;;;;;;23.08;11.95;;;;;;;;;;5051387;28;20024;-75
2023/10/24 09:26:21;;;;;;;23.38;11.73;;;;;;;;;;5046489;28;20842;-75
2023/10/24 09:28:56;;;;;;;24.65;11.88;;;;;;;;;;5018751;28;20053;-75
2023/10/24 09:31:23;;;;;;;20.95;11.77;;;;;;;;;;5025489;28;20024;-75
2023/10/24 09:33:48;;;;;;;21.45;11.05;;;;;;;;;;5037912;28;20036;-76
2023/10/24 09:36:27;;;;;;;19.02;10.25;;;;;;;;;;5033730;28;20024;-75
2023/10/24 09:38:54;;;;;;;22.58;11.82;;;;;;;;;;5017500;28;20581;-76
2023/10/24 09:41:21;;;;;;;31.27;12.13;;;;;;;;;;5037375;28;20036;-75
2023/10/24 09:43:48;;;;;;;29.88;11.73;;;;;;;;;;5021895;28;20041;-74
2023/10/24 09:46:22;;;;;;;22.73;10.57;;;;;;;;;;5034457;28;20139;-75
2023/10/24 09:48:49;;;;;;;37.85;13.18;;;;;;;;;;5032908;28;20077;-75
2023/10/24 09:51:19;;;;;;;27.15;11.80;;;;;;;;;;5020590;28;20025;-76
2023/10/24 09:53:47;;;;;;;21.63;11.13;;;;;;;;;;5039633;28;20036;-77
2023/10/24 09:56:13;;;;;;;21.23;10.40;;;;;;;;;;5031075;28;20025;-74
2023/10/24 09:58:41;;;;;;;27.48;12.95;;;;;;;;;;5033854;28;20033;-73
2023/10/24 10:01:09;;;;;;;27.20;14.20;;;;;;;;;;5024146;28;20240;-77
2023/10/24 10:03:36;;;;;;;22.48;11.25;;;;;;;;;;5009799;28;20058;-75
2023/10/24 10:06:06;;;;;;;20.23;11.70;;;;;;;;;;5046149;28;20485;-74
2023/10/24 10:08:37;;;;;;;24.50;12.50;;;;;;;;;;5062529;28;20032;-75
2023/10/24 10:11:06;;;;;;;22.27;11.80;;;;;;;;;;5076305;28;20033;-74
2023/10/24 10:14:04;;;;;;;29.90;12.57;;;;;;;;;;5053330;28;20029;-74
2023/10/24 10:16:59;;;;;;;31.67;13.77;;;;;;;;;;5024480;28;20118;-75
2023/10/24 10:20:08;;;;;;;26.40;13.13;;;;;;;;;;5026730;28;20033;-74
2023/10/24 10:22:59;;;;;;;21.13;11.55;;;;;;;;;;5024362;28;20029;-74
2023/10/24 10:25:52;;;;;;;22.30;12.10;;;;;;;;;;5054239;28;20497;-77
2023/10/24 10:28:44;;;;;;;24.73;13.02;;;;;;;;;;5041214;28;20056;-74
2023/10/24 10:31:52;;;;;;;19.40;12.02;;;;;;;;;;5044406;28;20033;-75
2023/10/24 10:34:18;;;;;;;18.45;11.43;;;;;;;;;;5065018;28;20041;-71
2023/10/24 10:36:59;;;;;;;26.20;12.63;;;;;;;;;;5062169;28;20025;-76
2023/10/24 10:39:26;;;;;;;17.08;9.27;;;;;;;;;;5039631;28;20137;-74
2023/10/24 10:41:52;;;;;;;17.83;10.75;;;;;;;;;;5059396;28;20052;-76
2023/10/24 10:44:40;;;;;;;17.08;9.75;;;;;;;;;;5055397;28;20032;-76
2023/10/24 10:47:07;;;;;;;28.00;12.23;;;;;;;;;;5046465;28;20029;-75
2023/10/24 10:49:49;;;;;;;21.63;11.18;;;;;;;;;;5019659;28;20028;-75
2023/10/24 10:52:47;;;;;;;16.35;10.02;;;;;;;;;;5047984;28;20040;-75
2023/10/24 10:55:25;;;;;;;27.20;10.98;;;;;;;;;;5045055;28;20040;-75
2023/10/24 10:58:05;;;;;;;27.27;12.65;;;;;;;;;;5058981;28;20032;-75
2023/10/24 11:00:58;;;;;;;18.70;10.50;;;;;;;;;;5037127;28;20033;-75
2023/10/24 11:03:51;;;;;;;33.20;21.38;;;;;;;;;;5025834;28;20144;-75
2023/10/24 11:06:17;;;;;;;29.33;13.77;;;;;;;;;;5038753;28;20083;-76
2023/10/24 11:09:05;;;;;;;22.90;10.45;;;;;;;;;;5022883;28;20126;-77
2023/10/24 11:11:31;;;;;;;24.10;10.60;;;;;;;;;;5011417;28;20033;-76
2023/10/24 11:14:14;;;;;;;19.85;10.80;;;;;;;;;;5023243;28;20189;-76
2023/10/24 11:16:42;;;;;;;21.02;10.05;;;;;;;;;;5019120;28;20378;-74
2023/10/24 11:19:17;;;;;;;18.83;9.82;;;;;;;;;;5019038;28;20041;-75
2023/10/24 11:21:45;;;;;;;18.73;8.95;;;;;;;;;;5038354;28;20029;-76
2023/10/24 11:24:10;;;;;;;17.13;10.02;;;;;;;;;;5023782;28;20029;-76
2023/10/24 11:26:36;;;;;;;19.15;9.90;;;;;;;;;;5026069;28;20032;-77
2023/10/24 11:29:02;;;;;;;18.80;10.05;;;;;;;;;;5022396;28;20112;-76
2023/10/24 11:31:28;;;;;;;20.63;9.75;;;;;;;;;;5053413;28;20082;-77
2023/10/24 11:33:53;;;;;;;18.75;9.68;;;;;;;;;;5038868;28;20563;-76
2023/10/24 11:36:20;;;;;;;18.75;9.95;;;;;;;;;;5020532;28;20025;-75
2023/10/24 11:38:47;;;;;;;15.52;9.82;;;;;;;;;;5033981;28;20693;-76
2023/10/24 11:41:15;;;;;;;18.50;9.73;;;;;;;;;;5035250;28;20033;-75
2023/10/24 11:43:43;;;;;;;25.40;14.90;;;;;;;;;;5033595;28;20037;-77
2023/10/24 11:46:10;;;;;;;19.67;13.00;;;;;;;;;;5025454;28;20110;-76
2023/10/24 11:48:36;;;;;;;23.50;11.30;;;;;;;;;;5020317;28;20036;-76
2023/10/24 11:51:02;;;;;;;20.73;11.40;;;;;;;;;;5037033;28;20037;-76
2023/10/24 11:53:29;;;;;;;38.03;12.48;;;;;;;;;;5038087;28;20529;-76
2023/10/24 11:55:56;;;;;;;30.77;12.18;;;;;;;;;;5017703;28;20024;-76
2023/10/24 11:58:21;;;;;;;22.75;9.70;;;;;;;;;;5011307;28;20037;-74
2023/10/24 12:00:47;;;;;;;29.98;10.60;;;;;;;;;;5034778;28;20025;-74
2023/10/24 12:03:12;;;;;;;18.88;10.48;;;;;;;;;;5021154;28;20036;-76
2023/10/24 12:05:55;;;;;;;29.45;11.48;;;;;;;;;;5023504;28;20118;-76
2023/10/24 12:08:25;;;;;;;16.52;9.98;;;;;;;;;;5039851;28;20037;-76
2023/10/24 12:10:55;;;;;;;21.13;10.73;;;;;;;;;;5043328;28;20040;-76
2023/10/24 12:13:25;;;;;;;24.00;12.45;;;;;;;;;;5042777;28;20508;-76
2023/10/24 12:15:51;;;;;;;25.40;12.52;;;;;;;;;;5027585;28;20103;-75
2023/10/24 12:18:19;;;;;;;25.50;11.25;;;;;;;;;;5035976;28;20037;-78
2023/10/24 12:20:53;;;;;;;34.30;12.43;;;;;;;;;;5064886;28;20051;-77
2023/10/24 12:23:20;;;;;;;18.95;10.65;;;;;;;;;;5061533;28;20029;-76
2023/10/24 12:25:46;;;;;;;31.30;11.07;;;;;;;;;;5026426;28;20024;-76
2023/10/24 12:28:11;;;;;;;30.60;12.98;;;;;;;;;;5022118;28;20029;-76
2023/10/24 12:30:37;;;;;;;23.42;11.30;;;;;;;;;;5042621;28;20136;-75
2023/10/24 12:33:03;;;;;;;26.30;11.38;;;;;;;;;;5039379;28;20230;-75
2023/10/24 12:35:56;;;;;;;24.50;11.85;;;;;;;;;;5024955;28;20432;-74
2023/10/24 12:38:22;;;;;;;21.88;10.13;;;;;;;;;;5050388;28;20032;-75
2023/10/24 12:40:48;;;;;;;16.92;9.80;;;;;;;;;;5038672;28;20035;-75
2023/10/24 12:43:13;;;;;;;18.50;10.13;;;;;;;;;;5039217;28;20043;-75
2023/10/24 12:45:39;;;;;;;18.92;12.68;;;;;;;;;;5042148;28;20106;-75
2023/10/24 12:48:10;;;;;;;19.10;10.27;;;;;;;;;;5023645;28;20469;-74
2023/10/24 12:50:37;;;;;;;19.40;11.25;;;;;;;;;;5022780;28;20483;-76
2023/10/24 12:53:04;;;;;;;24.98;11.02;;;;;;;;;;5030960;28;20059;-74
2023/10/24 12:55:30;;;;;;;18.77;10.65;;;;;;;;;;5025570;28;20033;-76
2023/10/24 12:57:56;;;;;;;17.45;10.23;;;;;;;;;;5051894;28;20028;-75
2023/10/24 13:00:22;;;;;;;21.38;11.43;;;;;;;;;;5038751;28;20032;-75
2023/10/24 13:02:48;;;;;;;20.98;12.48;;;;;;;;;;5037340;28;20850;-76
2023/10/24 13:05:23;;;;;;;20.13;12.50;;;;;;;;;;5040608;28;20033;-76
2023/10/24 13:07:51;;;;;;;16.73;10.52;;;;;;;;;;5018080;28;20373;-74
2023/10/24 13:10:17;;;;;;;19.42;10.77;;;;;;;;;;5036397;28;20068;-75
2023/10/24 13:12:44;;;;;;;24.05;10.85;;;;;;;;;;5041834;28;20814;-76
2023/10/24 13:15:10;;;;;;;23.63;10.13;;;;;;;;;;5025915;28;20189;-78
2023/10/24 13:17:36;;;;;;;22.42;10.43;;;;;;;;;;5041601;28;20053;-74
2023/10/24 13:20:16;;;;;;;26.05;10.05;;;;;;;;;;5022268;28;20032;-74
2023/10/24 13:22:42;;;;;;;22.70;9.77;;;;;;;;;;5025505;28;20031;-76
2023/10/24 13:25:08;;;;;;;21.58;10.18;;;;;;;;;;5040875;28;20028;-75
2023/10/24 13:27:33;;;;;;;21.33;10.48;;;;;;;;;;5024524;28;20033;-74
2023/10/24 13:29:59;;;;;;;26.83;11.70;;;;;;;;;;5023767;28;20036;-74
2023/10/24 13:32:24;;;;;;;41.60;11.85;;;;;;;;;;5043900;28;20036;-74
2023/10/24 13:34:50;;;;;;;24.50;11.15;;;;;;;;;;5023884;28;20083;-74
2023/10/24 13:37:15;;;;;;;19.08;10.70;;;;;;;;;;5022757;28;20020;-74
2023/10/24 13:39:42;;;;;;;24.27;12.38;;;;;;;;;;5044441;28;20043;-76
2023/10/24 13:42:07;;;;;;;18.60;10.88;;;;;;;;;;5026413;28;20037;-75
2023/10/24 13:44:33;;;;;;;20.85;10.80;;;;;;;;;;5024555;28;20028;-75
2023/10/24 13:46:59;;;;;;;23.10;12.13;;;;;;;;;;5026778;28;20043;-72
2023/10/24 13:49:25;;;;;;;17.13;10.02;;;;;;;;;;5044667;28;20037;-75
2023/10/24 13:51:51;;;;;;;19.40;11.45;;;;;;;;;;5027580;28;20589;-74
2023/10/24 13:54:16;;;;;;;20.05;11.80;;;;;;;;;;5043921;28;20029;-74
2023/10/24 13:56:42;;;;;;;20.40;11.63;;;;;;;;;;5043227;28;20056;-76
2023/10/24 13:59:07;;;;;;;25.52;13.50;;;;;;;;;;5045177;28;20036;-75
2023/10/24 14:01:33;;;;;;;19.92;12.75;;;;;;;;;;5027229;28;20021;-75
2023/10/24 14:04:02;;;;;;;35.10;23.80;;;;;;;;;;5024637;28;20029;-73
2023/10/24 14:06:31;;;;;;;31.98;18.73;;;;;;;;;;5044166;28;20079;-75
2023/10/24 14:08:56;;;;;;;22.15;14.82;;;;;;;;;;5048952;28;20422;-75
2023/10/24 14:11:22;;;;;;;23.98;13.20;;;;;;;;;;5031380;28;20104;-77
2023/10/24 14:13:48;;;;;;;28.38;14.52;;;;;;;;;;5030024;28;20024;-76
2023/10/24 14:16:14;;;;;;;25.40;12.52;;;;;;;;;;5048665;28;20525;-75
2023/10/24 14:18:39;;;;;;;23.77;12.90;;;;;;;;;;5029825;28;20028;-77
2023/10/24 14:21:05;;;;;;;29.50;14.23;;;;;;;;;;5048724;28;20028;-76
2023/10/24 14:23:30;;;;;;;28.45;15.88;;;;;;;;;;5047089;28;20025;-75
2023/10/24 14:25:59;;;;;;;26.38;15.95;;;;;;;;;;5049096;28;20128;-76
2023/10/24 14:28:27;;;;;;;20.77;12.40;;;;;;;;;;5048873;28;20032;-77
2023/10/24 14:30:52;;;;;;;24.98;13.38;;;;;;;;;;5050885;28;20021;-77
2023/10/24 14:33:18;;;;;;;20.25;12.75;;;;;;;;;;5058454;28;20021;-76